• Join FlightAware (Why Join?)
  • Login
  • US Flag 
Gobble Gobble! 
06:02AM EST


 

Airport Tracker/Info


-or-


 

Live Flight TrackerFlight Track Log ✈ N677F ✈ 11-Jun-2013 ✈ KBJC - KBJC

Flight Track Log - Related Links

Times and Time Zones

All times are in EDT time to prevent confusion due to time zone crossing. See the N677F flight status page for this flight to view local times or setup timezone preferences in your user account.

Time Position Orientation Groundspeed Altitude Reporting Facility
EDT Latitude Longitude Course Direction KTS MPH feet Rate Location/Type
05:05AM 39.9333 -105.1333 57° Northeast 192 221 7,000  Level Denver TRACON
05:06AM 39.9667 -105.0667 57° Northeast 252 290 8,600 1,620 Climbing Denver TRACON
05:07AM 39.9736 -105.0006 82° East 281 323 9,800 1,560 Climbing Denver Center
05:08AM 39.9786 -104.8814 87° East 327 376 11,300 1,980 Climbing Denver Center
05:09AM 39.9839 -104.7508 87° East 356 410 13,900 2,340 Climbing Denver Center
05:10AM 39.9897 -104.6175 87° East 365 420 16,100 2,160 Climbing Denver Center
05:11AM 39.9947 -104.4783 87° East 382 440 18,300 2,160 Climbing Denver Center
05:12AM 40.0019 -104.3336 86° East 397 457 20,500 2,040 Climbing Denver Center
05:13AM 40.0089 -104.1828 87° East 415 478 22,500 2,100 Climbing Denver Center
05:14AM 40.0131 -104.0256 88° East 427 491 24,800 2,160 Climbing Denver Center
05:15AM 40.0197 -103.8667 87° East 440 506 26,900 1,980 Climbing Denver Center
05:16AM 40.0281 -103.7078 86° East 435 501 28,900 2,040 Climbing Denver Center
05:17AM 40.0353 -103.5469 87° East 441 507 31,000 1,860 Climbing Denver Center
05:18AM 40.0500 -103.3861 83° East 450 518 32,700 1,920 Climbing Denver Center
05:19AM 40.0797 -103.2278 76° East 450 518 34,900 1,680 Climbing Denver Center
05:20AM 40.1067 -103.0714 77° East 444 511 36,100 1,140 Climbing Denver Center
05:21AM 40.1344 -102.9103 77° East 454 522 37,200 1,020 Climbing Denver Center
05:22AM 40.1619 -102.7453 78° East 464 534 38,200 1,020 Climbing Denver Center
05:23AM 40.1894 -102.5750 78° East 472 543 39,300 660 Climbing Denver Center
05:24AM 40.2178 -102.4122 77° East 479 551 39,600 480 Climbing Denver Center
05:25AM 40.2642 -102.2256 72° East 488 562 40,300 660 Climbing Denver Center
05:26AM 40.3783 -102.1778 18° North 471 542 41,000 300 Climbing Denver Center
05:27AM 40.4736 -102.2639 325° Northwest 439 505 41,000  Level Denver Center
05:28AM 40.5331 -102.3925 301° West 432 497 41,000  Level Denver Center
05:29AM 40.6481 -102.4756 331° Northwest 457 526 41,000  Level Denver Center
05:30AM 40.7692 -102.4847 357° North 457 526 41,000  Level Denver Center
05:31AM 40.8917 -102.4806 North 458 527 41,000  Level Denver Center
05:32AM 41.0333 -102.4803 360° North 455 524 41,000  Level Denver Center
05:33AM 41.1564 -102.4772 North 457 526 41,000  Level Denver Center
05:34AM 41.2792 -102.4764 360° North 460 529 41,000  Level Denver Center
05:35AM 41.4033 -102.4742 North 463 533 41,000  Level Denver Center
05:36AM 41.5461 -102.4719 North 460 529 41,000  Level Denver Center
05:37AM 41.6714 -102.4714 360° North 466 536 41,000  Level Denver Center
05:38AM 41.8000 -102.4683 North 470 541 41,000  Level Denver Center
05:39AM 41.9233 -102.4694 360° North 464 534 41,000  Level Denver Center
05:40AM 42.0661 -102.4775 358° North 464 534 41,000  Level Denver Center
05:41AM 42.1919 -102.4633 North 476 548 41,000  Level Denver Center
05:42AM 42.3167 -102.4617 North 472 543 41,000  Level Denver Center
05:43AM 42.4625 -102.4594 North 470 541 41,000  Level Denver Center
05:44AM 42.5850 -102.4575 North 466 536 41,000  Level Denver Center
05:45AM 42.7086 -102.4550 North 464 534 41,000  Level Denver Center
05:46AM 42.8544 -102.4533 360° North 467 537 41,000  Level Denver Center
05:47AM 42.9597 -102.4517 North 470 541 41,000  Level Denver Center
05:48AM 43.1067 -102.4494 North 473 544 41,000  Level Denver Center
05:49AM 43.2339 -102.4486 360° North 474 545 41,000  Level Denver Center
05:50AM 43.3769 -102.4469 360° North 462 532 41,000  Level Denver Center
05:51AM 43.5014 -102.4453 North 466 536 41,000  Level Denver Center
05:52AM 43.6272 -102.4439 360° North 470 541 41,000  Level Denver Center
05:53AM 43.7742 -102.4414 North 472 543 41,000  Level Denver Center
05:54AM 43.9050 -102.4400 360° North 471 542 41,000  Level Denver Center
05:55AM 44.0339 -102.4392 360° North 464 534 41,000  Level Denver Center
05:56AM 44.1622 -102.4367 North 463 533 41,000  Level Denver Center
05:57AM 44.2928 -102.4367 360° North 464 534 41,000  Level Denver Center
05:58AM 44.4231 -102.4339 North 468 539 41,000  Level Denver Center
05:59AM 44.5550 -102.4306 North 471 542 41,000  Level Denver Center
06:00AM 44.6858 -102.4300 360° North 469 540 41,000  Level Denver Center
06:01AM 44.8072 -102.4681 347° North 457 526 41,000  Level Denver Center
06:02AM 44.8297 -102.6292 281° West 441 507 41,000  Level Denver Center
06:03AM 44.8125 -102.7950 262° West 433 498 41,000  Level Denver Center
06:04AM 44.7942 -102.9617 261° West 431 496 41,000  Level Denver Center
06:05AM 44.7817 -103.1311 264° West 434 499 41,000  Level Denver Center
06:06AM 44.7758 -103.2644 267° West 430 495 41,000  Level Denver Center
06:07AM 44.7775 -103.4639 271° West 425 489 41,000  Level Denver Center
06:08AM 44.7803 -103.6289 271° West 431 496 41,000  Level Denver Center
06:09AM 44.7822 -103.7897 271° West 430 495 41,000  Level Denver Center
06:10AM 44.7833 -104.0014 270° West 429 494 41,000  Level Salt Lake Center
06:11AM 44.7856 -104.1597 271° West 426 490 41,000  Level Salt Lake Center
06:12AM 44.7861 -104.3211 270° West 429 494 41,000  Level Salt Lake Center
06:13AM 44.7856 -104.4828 270° West 428 493 41,000  Level Denver Center
06:14AM 44.7861 -104.6475 270° West 429 494 41,000  Level Denver Center
06:15AM 44.7853 -104.8075 270° West 427 491 41,000  Level Denver Center
06:16AM 44.7864 -104.9686 271° West 429 494 41,000  Level Denver Center
06:17AM 44.7847 -105.1025 269° West 430 495 41,000  Level Denver Center
06:18AM 44.7850 -105.2897 270° West 428 493 41,000  Level Denver Center
06:19AM 44.7833 -105.4506 269° West 429 494 41,000  Level Denver Center
06:20AM 44.7817 -105.6133 269° West 433 498 41,000  Level Denver Center
06:21AM 44.7808 -105.7761 270° West 434 499 41,000  Level Denver Center
06:22AM 44.7781 -105.9678 269° West 439 505 41,000  Level Denver Center
06:23AM 44.7761 -106.1319 269° West 440 506 41,000  Level Salt Lake Center
06:24AM 44.7739 -106.2956 269° West 439 505 41,000  Level Salt Lake Center
06:25AM 44.7719 -106.4603 269° West 440 506 41,000  Level Salt Lake Center
06:26AM 44.7694 -106.6236 269° West 437 503 41,000  Level Salt Lake Center
06:27AM 44.7667 -106.8144 269° West 438 504 41,000  Level Salt Lake Center
06:28AM 44.7631 -106.9772 268° West 436 502 41,000  Level Salt Lake Center
06:29AM 44.7589 -107.1375 268° West 431 496 41,000  Level Salt Lake Center
06:30AM 44.7542 -107.3014 268° West 438 504 41,000  Level Salt Lake Center
06:31AM 44.7447 -107.4886 266° West 432 497 41,000  Level Salt Lake Center
06:32AM 44.6511 -107.5686 211° Southwest 443 510 41,000  Level Salt Lake Center
06:33AM 44.5336 -107.5389 170° South 444 511 41,000  Level Salt Lake Center
06:34AM 44.4153 -107.5178 173° South 446 513 41,000  Level Salt Lake Center
06:35AM 44.2767 -107.5164 180° South 445 512 41,000  Level Salt Lake Center
06:36AM 44.1572 -107.5161 180° South 447 514 41,000  Level Salt Lake Center
06:37AM 44.0375 -107.5178 181° South 449 517 41,000  Level Salt Lake Center
06:38AM 43.8975 -107.5197 181° South 451 519 41,000  Level Salt Lake Center
06:39AM 43.7786 -107.5197 180° South 446 513 41,000  Level Salt Lake Center
06:40AM 43.6608 -107.5192 180° South 444 511 41,000  Level Salt Lake Center
06:41AM 43.5439 -107.5189 180° South 441 507 41,000  Level Salt Lake Center
06:42AM 43.4256 -107.4394 154° Southeast 462 532 41,000  Level Salt Lake Center
06:43AM 43.4261 -107.2622 90° East 486 559 41,000  Level Denver Center
06:44AM 43.4503 -107.0558 81° East 489 563 41,000  Level Denver Center
06:45AM 43.4725 -106.8672 81° East 488 562 41,000  Level Denver Center
06:46AM 43.4906 -106.6897 82° East 489 563 41,000  Level Denver Center
06:47AM 43.4969 -106.5103 87° East 490 564 41,000  Level Denver Center
06:48AM 43.5008 -106.3317 88° East 489 563 41,000  Level Denver Center
06:49AM 43.5053 -106.1231 88° East 489 563 41,000  Level Denver Center
06:50AM 43.5075 -105.9461 89° East 483 556 41,000  Level Denver Center
06:51AM 43.5097 -105.7694 89° East 481 554 41,000  Level Denver Center
06:52AM 43.5131 -105.5628 89° East 482 555 41,000  Level Denver Center
06:53AM 43.5161 -105.3825 89° East 487 560 41,000  Level Denver Center
06:54AM 43.5178 -105.2050 89° East 486 559 41,000  Level Denver Center
06:55AM 43.5200 -105.0261 89° East 486 559 41,000  Level Denver Center
06:56AM 43.5217 -104.8189 89° East 484 557 41,000  Level Denver Center
06:57AM 43.5217 -104.6417 90° East 483 556 41,000  Level Denver Center
06:58AM 43.5222 -104.4622 90° East 486 559 41,000  Level Denver Center
06:59AM 43.5231 -104.2822 90° East 488 562 41,000  Level Denver Center
07:00AM 43.5239 -104.0744 90° East 487 560 41,000  Level Denver Center
07:01AM 43.5250 -103.8986 89° East 482 555 41,000  Level Denver Center
07:02AM 43.4783 -103.7406 112° Southeast 484 557 41,000  Level Denver Center
07:03AM 43.3617 -103.7217 173° South 443 510 41,000  Level Denver Center
07:04AM 43.2222 -103.7269 182° South 446 513 41,000  Level Denver Center
07:05AM 43.1014 -103.7325 182° South 450 518 41,000  Level Denver Center
07:06AM 42.9814 -103.7381 182° South 450 518 41,000  Level Denver Center
07:07AM 42.8611 -103.7419 181° South 449 517 41,000  Level Denver Center
07:08AM 42.7206 -103.7497 182° South 451 519 41,000  Level Denver Center
07:09AM 42.5992 -103.7556 182° South 453 521 41,000  Level Denver Center
07:10AM 42.4781 -103.7614 182° South 452 520 41,000  Level Denver Center
07:12AM 42.2183 -103.7728 182° South 451 519 41,000  Level Denver Center
07:13AM 42.0975 -103.7778 182° South 451 519 41,000  Level Denver Center
07:14AM 41.9783 -103.7886 184° South 447 514 41,000  Level Denver Center
07:15AM 41.8614 -103.8153 190° South 445 512 41,000  Level Denver Center
07:16AM 41.7236 -103.8456 189° South 446 513 41,000  Level Denver Center
07:17AM 41.6069 -103.8703 189° South 443 510 41,000  Level Denver Center
07:18AM 41.4886 -103.8969 190° South 447 514 41,000  Level Denver Center
07:19AM 41.3689 -103.9228 189° South 453 521 41,000  Level Denver Center
07:20AM 41.2317 -103.9503 189° South 449 517 41,000  Level Denver Center
07:21AM 41.1144 -103.9753 189° South 446 513 41,000  Level Denver Center
07:22AM 40.9972 -103.9956 187° South 443 510 41,000  Level Denver Center
07:23AM 40.8708 -103.9717 172° South 458 527 41,000  Level Denver Center
07:24AM 40.7453 -103.9447 171° South 459 528 41,000  Level Denver Center
07:25AM 40.6203 -103.9181 171° South 456 525 41,000  Level Denver Center
07:26AM 40.4956 -103.8911 171° South 453 521 41,000  Level Denver Center
07:27AM 40.3706 -103.8639 171° South 454 522 41,000  Level Denver Center
07:28AM 40.2442 -103.8378 171° South 458 527 41,000  Level Denver Center
07:29AM 40.1206 -103.8103 170° South 452 520 41,000  Level Denver Center
07:30AM 39.9961 -103.7808 170° South 453 521 41,000  Level Denver Center
07:31AM 39.8708 -103.7428 167° South 458 527 41,000  Level Denver Center
07:32AM 39.7664 -103.8056 205° Southwest 444 511 41,000  Level Denver Center
07:33AM 39.7850 -103.9519 279° West 437 503 41,000  Level Denver Center
07:34AM 39.8378 -104.0900 297° West 429 494 41,000  Level Denver Center
07:35AM 39.8858 -104.2322 294° West 431 496 41,000  Level Denver Center
07:36AM 39.9358 -104.3728 295° West 431 496 41,000  Level Denver Center
07:37AM 39.9842 -104.5131 294° West 430 495 41,000  Level Denver Center
07:38AM 40.0325 -104.6578 294° West 442 509 41,000  Level Denver Center
07:39AM 40.0892 -104.8286 293° West 435 501 41,000  Level Denver Center
07:40AM 40.1375 -104.9758 293° West 441 507 41,000  Level Denver Center
07:41AM 40.1867 -105.1214 294° West 440 506 41,000  Level Denver Center
07:42AM 40.2342 -105.2678 293° West 437 503 41,000  Level Denver Center
07:43AM 40.2836 -105.4156 294° West 445 512 41,000  Level Denver Center
07:44AM 40.3314 -105.5600 293° West 426 490 41,000  Level Denver Center
07:45AM 40.3808 -105.7072 294° West 439 505 41,000  Level Denver Center
07:46AM 40.4289 -105.8556 293° West 443 510 41,000  Level Denver Center
07:47AM 40.4781 -106.0058 293° West 448 516 41,000  Level Denver Center
07:48AM 40.5278 -106.1606 293° West 460 529 41,000  Level Denver Center
07:49AM 40.5542 -106.3086 283° West 446 513 41,000  Level Denver Center
07:50AM 40.5436 -106.4839 266° West 433 498 41,000  Level Denver Center
07:51AM 40.5233 -106.6197 259° West 440 506 41,000  Level Denver Center
07:52AM 40.5011 -106.7811 260° West 448 516 41,000  Level Denver Center
07:53AM 40.4789 -106.9444 260° West 447 514 41,000  Level Denver Center
07:54AM 40.4531 -107.1219 259° West 444 511 41,000  Level Denver Center
07:55AM 40.4322 -107.2717 260° West 439 505 41,000  Level Denver Center
07:56AM 40.4122 -107.4131 260° West 418 481 41,000  Level Denver Center
07:57AM 40.3975 -107.5881 264° West 431 496 41,000  Level Denver Center
07:58AM 40.3917 -107.7389 267° West 434 499 41,000  Level Denver Center
07:59AM 40.3831 -107.8900 266° West 435 501 41,000  Level Denver Center
08:00AM 40.3733 -108.0689 266° West 439 505 41,000  Level Denver Center
08:01AM 40.3647 -108.2214 266° West 439 505 41,000  Level Denver Center
08:02AM 40.3575 -108.3508 266° West 446 513 41,000  Level Denver Center
08:03AM 40.3447 -108.5592 265° West 448 516 41,000  Level Denver Center
08:04AM 40.3389 -108.6311 264° West 446 513 41,000  Level Salt Lake Center
08:05AM 40.3086 -108.7792 255° West 441 507 41,000  Level Salt Lake Center
08:06AM 40.2292 -108.8917 227° Southwest 446 513 41,000  Level Salt Lake Center
08:06AM 40.1606 -108.9431 210° Southwest 447 514 41,000  Level Denver Center
08:07AM 40.1106 -108.9825 211° Southwest 444 511 41,000  Level Salt Lake Center
08:08AM 40.0133 -109.0622 212° Southwest 436 502 41,000  Level Salt Lake Center
08:09AM 39.9189 -109.1422 213° Southwest 428 493 41,000  Level Salt Lake Center
08:10AM 39.8056 -109.2339 212° Southwest 431 496 41,000  Level Salt Lake Center
08:11AM 39.7078 -109.3133 212° Southwest 434 499 41,000  Level Salt Lake Center
08:12AM 39.6097 -109.3933 212° Southwest 436 502 41,000  Level Salt Lake Center
08:13AM 39.4975 -109.4847 212° Southwest 430 495 41,000  Level Salt Lake Center
08:14AM 39.3978 -109.5653 212° Southwest 439 505 41,000  Level Salt Lake Center
08:14AM 39.3458 -109.6039 210° Southwest 446 513 41,000  Level Denver Center
08:15AM 39.2961 -109.6439 212° Southwest 444 511 41,000  Level Salt Lake Center
08:16AM 39.1797 -109.7400 213° Southwest 444 511 41,000  Level Salt Lake Center
08:17AM 39.0825 -109.8236 214° Southwest 440 506 41,000  Level Salt Lake Center
08:18AM 38.9722 -109.8594 194° South 453 521 41,000  Level Salt Lake Center
08:19AM 38.8931 -109.7144 125° Southeast 478 550 41,000  Level Salt Lake Center
08:20AM 38.8703 -109.5556 100° East 475 547 41,000  Level Salt Lake Center
08:21AM 38.8508 -109.3956 99° East 475 547 41,000  Level Salt Lake Center
08:22AM 38.8258 -109.2056 100° East 485 558 41,000  Level Salt Lake Center
08:23AM 38.8061 -109.0478 99° East 474 545 41,000  Level Salt Lake Center
08:24AM 38.7867 -108.8925 99° East 465 535 41,000  Level Salt Lake Center
08:25AM 38.8044 -108.7081 83° East 475 547 41,000  Level Salt Lake Center
08:26AM 38.8339 -108.5492 77° East 482 555 41,000  Level Salt Lake Center
08:27AM 38.8639 -108.3878 77° East 486 559 41,000  Level Salt Lake Center
08:28AM 38.8992 -108.1986 76° East 489 563 41,000  Level Salt Lake Center
08:29AM 38.9272 -108.0400 77° East 484 557 41,000  Level Salt Lake Center
08:30AM 38.9553 -107.8861 77° East 472 543 41,000  Level Salt Lake Center
08:31AM 38.9869 -107.7056 77° East 467 537 41,000  Level Salt Lake Center
08:32AM 39.0142 -107.5478 77° East 471 542 41,000  Level Salt Lake Center
08:33AM 39.0325 -107.3914 81° East 467 537 41,000  Level Salt Lake Center
08:34AM 39.0333 -107.2028 90° East 473 544 41,000  Level Salt Lake Center
08:35AM 39.0367 -107.0389 88° East 477 549 41,000  Level Salt Lake Center
08:36AM 39.0397 -106.8742 89° East 481 554 41,000  Level Salt Lake Center
08:37AM 39.0442 -106.6833 88° East 480 552 41,000  Level Salt Lake Center
08:37AM 39.0436 -106.6567 92° East 476 548 41,000  Level Denver Center
08:38AM 39.0486 -106.4947 88° East 475 547 41,000  Level Denver Center
08:39AM 39.0542 -106.3025 88° East 480 552 41,000  Level Denver Center
08:40AM 38.9856 -106.1819 126° Southeast 465 535 41,000  Level Denver Center
08:41AM 38.8722 -106.2250 196° South 415 478 41,000  Level Denver Center
08:42AM 38.7756 -106.3181 217° Southwest 428 493 41,000  Level Denver Center
08:43AM 38.6808 -106.4194 220° Southwest 438 504 41,000  Level Denver Center
08:44AM 38.5875 -106.5211 220° Southwest 437 503 41,000  Level Denver Center
08:46AM 38.4942 -106.6214 220° Southwest 435 501 41,000  Level Denver Center
08:47AM 38.4075 -106.7169 221° Southwest 411 473 41,000  Level Denver Center
08:48AM 38.3106 -106.8219 220° Southwest 415 478 41,000  Level Denver Center
08:49AM 38.2233 -106.8967 214° Southwest 419 482 41,000  Level Denver Center
08:50AM 38.1281 -106.9778 214° Southwest 411 473 41,000  Level Denver Center
08:51AM 38.0178 -107.0681 213° Southwest 417 480 41,000  Level Denver Center
08:52AM 37.9225 -107.1472 213° Southwest 424 488 41,000  Level Denver Center
08:53AM 37.8236 -107.2278 213° Southwest 424 488 41,000  Level Denver Center
08:54AM 37.7119 -107.3208 213° Southwest 430 495 41,000  Level Denver Center
08:55AM 37.6161 -107.3994 213° Southwest 430 495 41,000  Level Denver Center
08:56AM 37.5197 -107.4797 213° Southwest 434 499 41,000  Level Denver Center
08:57AM 37.4128 -107.5803 217° Southwest 429 494 41,000  Level Denver Center
08:58AM 37.4217 -107.7228 275° West 448 516 41,000  Level Denver Center
08:59AM 37.5081 -107.8203 318° Northwest 467 537 41,000  Level Denver Center
09:00AM 37.5964 -107.9425 312° West 457 526 41,000  Level Denver Center
09:01AM 37.6136 -108.0936 278° West 457 526 41,000  Level Denver Center
09:02AM 37.6303 -108.2683 277° West 455 524 41,000  Level Denver Center
09:03AM 37.6314 -108.4136 271° West 442 509 41,000  Level Denver Center
09:04AM 37.6344 -108.5603 272° West 440 506 41,000  Level Denver Center
09:05AM 37.6467 -108.7278 275° West 429 494 41,000  Level Denver Center
09:06AM 37.6647 -108.8758 279° West 443 510 41,000  Level Denver Center
09:07AM 37.6831 -108.9931 281° West 435 501 41,000  Level Denver Center
09:08AM 37.7097 -109.1800 280° West 425 489 41,000  Level Denver Center
09:09AM 37.7306 -109.3208 281° West 427 491 41,000  Level Denver Center
09:10AM 37.7547 -109.4944 280° West 447 514 41,000  Level Denver Center
09:11AM 37.7750 -109.6428 280° West 448 516 41,000  Level Denver Center
09:12AM 37.7989 -109.8103 280° West 439 505 41,000  Level Denver Center
09:13AM 37.8194 -109.9558 280° West 439 505 41,000  Level Denver Center
09:14AM 37.8189 -110.1014 270° West 432 497 41,000  Level Denver Center
09:15AM 37.7781 -110.2622 252° West 428 493 41,000  Level Denver Center
09:16AM 37.7394 -110.3947 250° West 421 484 41,000  Level Denver Center
09:17AM 37.6950 -110.5456 250° West 416 479 41,000  Level Denver Center
09:18AM 37.6433 -110.7169 249° West 434 499 41,000  Level Denver Center
09:19AM 37.6025 -110.8522 249° West 418 481 41,000  Level Denver Center
09:20AM 37.5631 -110.9869 250° West 409 471 41,000  Level Denver Center
09:21AM 37.5219 -111.1275 250° West 425 489 41,000  Level Denver Center
09:22AM 37.5097 -111.2383 262° West 422 486 41,000  Level Denver Center
09:23AM 37.6344 -111.3208 332° Northwest 488 562 41,000 60 Level Denver Center
09:24AM 37.6894 -111.3125 North 487 560 41,100  Climbing Salt Lake Center
09:25AM 37.8267 -111.3156 359° North 496 571 41,000 -60 Descending Salt Lake Center
09:26AM 37.9639 -111.3097 North 496 571 41,000  Level Salt Lake Center
09:27AM 38.0969 -111.3036 North 485 558 41,000  Level Salt Lake Center
09:28AM 38.2336 -111.2983 North 490 564 41,000  Level Salt Lake Center
09:29AM 38.4031 -111.2942 North 505 581 41,000  Level Salt Lake Center
09:30AM 38.5367 -111.2864 North 489 563 41,000  Level Salt Lake Center
09:31AM 38.6744 -111.2808 North 494 568 41,000  Level Salt Lake Center
09:32AM 38.8128 -111.2761 North 498 573 41,000  Level Salt Lake Center
09:33AM 38.9497 -111.2694 North 495 570 41,000  Level Salt Lake Center
09:34AM 39.0978 -111.2419 North 489 563 41,000  Level Salt Lake Center
09:36AM 39.3606 -111.1881 North 496 571 41,000  Level Salt Lake Center
09:37AM 39.5097 -111.1558 North 486 559 41,000  Level Salt Lake Center
09:38AM 39.6375 -111.1283 North 485 558 41,000  Level Salt Lake Center
09:39AM 39.7683 -111.1011 North 494 568 41,000  Level Salt Lake Center
09:40AM 39.9222 -111.0686 North 499 574 41,000  Level Salt Lake Center
09:41AM 40.0506 -111.0417 North 490 564 41,000  Level Salt Lake Center
09:42AM 40.1969 -111.0103 North 483 556 41,000  Level Salt Lake Center
09:43AM 40.3281 -110.9817 North 480 552 41,000  Level Salt Lake Center
09:44AM 40.4606 -110.9539 North 482 555 41,000  Level Salt Lake Center
09:45AM 40.5939 -110.9242 10° North 487 560 41,000  Level Salt Lake Center
09:46AM 40.7267 -110.8950 North 487 560 41,000  Level Salt Lake Center
09:47AM 40.8131 -110.7622 49° Northeast 493 567 41,000  Level Salt Lake Center
09:48AM 40.8536 -110.5714 74° East 490 564 41,000  Level Salt Lake Center
09:49AM 40.8886 -110.4069 74° East 488 562 41,000  Level Salt Lake Center
09:50AM 40.9278 -110.2158 75° East 483 556 41,000  Level Salt Lake Center
09:51AM 40.9650 -110.0544 73° East 481 554 41,000  Level Salt Lake Center
09:52AM 41.0931 -109.9633 28° Northeast 493 567 41,000  Level Salt Lake Center
09:53AM 41.1981 -110.0561 326° Northwest 473 544 41,000  Level Salt Lake Center
09:54AM 41.2825 -110.1753 313° West 464 534 41,000  Level Salt Lake Center
09:55AM 41.3792 -110.3233 311° West 469 540 41,000  Level Salt Lake Center
09:56AM 41.4642 -110.4481 312° West 472 543 41,000  Level Salt Lake Center
09:57AM 41.5492 -110.5756 312° West 477 549 41,000  Level Salt Lake Center
09:58AM 41.6431 -110.7269 310° West 475 547 41,000  Level Salt Lake Center
10:00AM 41.7211 -110.8589 308° West 472 543 41,000  Level Salt Lake Center
10:01AM 41.8011 -111.0100 305° West 471 542 41,000  Level Salt Lake Center
10:02AM 41.8778 -111.1536 306° West 475 547 41,000  Level Salt Lake Center
10:03AM 41.9864 -111.2389 330° Northwest 487 560 41,000  Level Salt Lake Center
10:04AM 42.0922 -111.1394 35° Northeast 495 570 41,000  Level Salt Lake Center
10:05AM 42.0900 -110.9269 91° East 479 551 41,000  Level Salt Lake Center
10:06AM 42.0756 -110.7508 96° East 478 550 41,000  Level Salt Lake Center
10:07AM 42.0608 -110.5803 97° East 480 552 41,000  Level Salt Lake Center
10:08AM 42.0453 -110.3803 96° East 481 554 41,000  Level Salt Lake Center
10:09AM 42.0319 -110.2094 96° East 480 552 41,000  Level Salt Lake Center
10:10AM 42.0192 -110.0375 96° East 482 555 41,000  Level Salt Lake Center
10:11AM 42.0156 -109.8372 91° East 481 554 41,000  Level Salt Lake Center
10:12AM 42.0181 -109.6642 89° East 483 556 41,000  Level Salt Lake Center
10:13AM 42.0200 -109.4664 89° East 476 548 41,000  Level Salt Lake Center
10:14AM 42.0208 -109.2953 90° East 475 547 41,000  Level Salt Lake Center
10:15AM 42.0211 -109.1242 90° East 476 548 41,000  Level Salt Lake Center
10:16AM 42.0219 -108.9244 90° East 476 548 41,000  Level Salt Lake Center
10:17AM 42.0214 -108.7522 90° East 479 551 41,000  Level Salt Lake Center
10:18AM 42.0222 -108.5472 90° East 487 560 41,000  Level Salt Lake Center
10:19AM 42.0272 -108.3750 88° East 484 557 41,000  Level Salt Lake Center
10:20AM 42.0381 -108.2025 85° East 483 556 41,000  Level Salt Lake Center
10:21AM 42.0472 -107.9997 86° East 486 559 41,000  Level Salt Lake Center
10:22AM 42.0556 -107.8297 86° East 480 552 41,000  Level Salt Lake Center
10:23AM 42.0642 -107.6333 87° East 472 543 41,000  Level Salt Lake Center
10:23AM 42.0619 -107.6028 96° East 478 550 41,000  Level Denver Center
10:24AM 42.0550 -107.4036 93° East 477 549 41,000  Level Denver Center
10:25AM 42.0419 -107.2342 96° East 476 548 41,000  Level Denver Center
10:26AM 42.0261 -107.0361 96° East 477 549 41,000  Level Denver Center
10:28AM 42.0169 -106.8675 94° East 474 545 41,000  Level Denver Center
10:29AM 42.0125 -106.6692 92° East 475 547 41,000  Level Denver Center
10:30AM 42.0075 -106.4986 92° East 481 554 41,000  Level Denver Center
10:31AM 42.0028 -106.3544 92° East 484 557 41,000  Level Denver Center